Time;durP1;ratioP1;P1;durP2;ratioP2;P2;SDS_P1;SDS_P2;PMS_P1;PMS_P2;Temp;Humidity;BMP_temperature;BMP_pressure;BME280_temperature;BME280_humidity;BME280_pressure;Samples;Min_cycle;Max_cycle;Signal;HPM_P1;HPM_P2
2023/03/30 00:00:15;;;;;;;23.90;14.23;;;10.10;99.90;;;;;;5078391;28;20181;-81
2023/03/30 00:02:44;;;;;;;24.52;15.00;;;10.20;99.90;;;;;;5091458;28;20040;-81
2023/03/30 00:05:12;;;;;;;23.05;14.50;;;10.20;99.90;;;;;;5115257;28;20060;-81
2023/03/30 00:07:42;;;;;;;24.20;14.63;;;10.20;99.90;;;;;;5132233;28;20406;-81
2023/03/30 00:10:10;;;;;;;22.50;14.52;;;10.20;99.90;;;;;;5115862;28;20042;-81
2023/03/30 00:12:38;;;;;;;21.27;13.82;;;10.20;99.90;;;;;;5104319;28;20094;-81
2023/03/30 00:15:06;;;;;;;26.20;14.45;;;10.20;99.90;;;;;;5128052;28;20070;-81
2023/03/30 00:17:33;;;;;;;23.60;14.38;;;10.20;99.90;;;;;;5112159;28;20125;-80
2023/03/30 00:20:10;;;;;;;21.13;14.23;;;10.20;99.90;;;;;;5095356;28;20071;-81
2023/03/30 00:22:41;;;;;;;22.75;14.50;;;10.20;99.90;;;;;;5110974;28;20775;-81
2023/03/30 00:25:10;;;;;;;21.65;14.02;;;10.20;99.90;;;;;;5111285;28;20032;-81
2023/03/30 00:27:37;;;;;;;21.13;14.27;;;10.20;99.90;;;;;;5111527;28;20039;-81
2023/03/30 00:30:15;;;;;;;21.35;13.63;;;10.20;99.90;;;;;;5111331;28;20044;-81
2023/03/30 00:32:43;;;;;;;22.90;14.13;;;10.20;99.90;;;;;;5111059;28;20126;-80
2023/03/30 00:35:11;;;;;;;19.55;13.48;;;10.20;99.90;;;;;;5110947;28;20392;-81
2023/03/30 00:37:38;;;;;;;23.35;13.68;;;10.20;99.90;;;;;;5094665;28;20046;-81
2023/03/30 00:40:07;;;;;;;21.55;13.63;;;10.20;99.90;;;;;;5094197;28;20752;-81
2023/03/30 00:42:35;;;;;;;22.60;13.32;;;10.20;99.90;;;;;;5111075;28;20075;-81
2023/03/30 00:45:19;;;;;;;20.05;13.18;;;10.30;99.90;;;;;;5110869;28;20043;-81
2023/03/30 00:47:58;;;;;;;22.45;13.55;;;10.30;99.90;;;;;;5110945;28;20825;-81
2023/03/30 00:50:42;;;;;;;19.20;13.05;;;10.30;99.90;;;;;;5110621;28;20101;-81
2023/03/30 00:53:38;;;;;;;19.45;13.25;;;10.30;99.90;;;;;;5110454;28;20400;-81
2023/03/30 00:56:08;;;;;;;19.08;12.90;;;10.30;99.90;;;;;;5109335;28;20052;-80
2023/03/30 00:58:37;;;;;;;21.17;13.43;;;10.20;99.90;;;;;;5110777;28;20040;-81
2023/03/30 01:01:07;;;;;;;24.80;13.43;;;10.20;99.90;;;;;;5094237;28;20399;-81
2023/03/30 01:03:44;;;;;;;24.13;13.50;;;10.30;99.90;;;;;;5110313;28;20050;-81
2023/03/30 01:06:13;;;;;;;24.00;12.82;;;10.30;99.90;;;;;;5129657;28;20513;-81
2023/03/30 01:08:44;;;;;;;18.33;12.02;;;10.20;99.90;;;;;;5147733;28;20035;-81
2023/03/30 01:11:11;;;;;;;17.48;11.95;;;10.30;99.90;;;;;;5130242;28;20043;-81
2023/03/30 01:13:43;;;;;;;16.48;10.82;;;10.30;99.90;;;;;;5130703;28;20043;-81
2023/03/30 01:16:29;;;;;;;20.83;12.55;;;10.30;99.90;;;;;;5116440;28;20047;-82
2023/03/30 01:19:15;;;;;;;21.40;12.18;;;10.30;99.90;;;;;;5127316;28;20059;-81
2023/03/30 01:22:00;;;;;;;20.38;11.77;;;10.20;99.90;;;;;;5110545;28;20040;-81
2023/03/30 01:24:36;;;;;;;16.90;10.83;;;10.20;99.90;;;;;;5126975;28;20744;-81
2023/03/30 01:27:20;;;;;;;18.65;10.93;;;10.20;99.90;;;;;;5127873;28;20308;-81
2023/03/30 01:30:32;;;;;;;18.05;10.98;;;10.20;99.90;;;;;;5130544;28;20075;-81
2023/03/30 01:33:26;;;;;;;19.08;10.95;;;10.20;99.90;;;;;;5123263;28;20083;-81
2023/03/30 01:36:09;;;;;;;17.58;10.88;;;10.20;99.90;;;;;;5129810;28;20031;-81
2023/03/30 01:39:07;;;;;;;17.90;10.52;;;10.20;99.90;;;;;;5129961;28;20035;-81
2023/03/30 01:41:56;;;;;;;17.70;10.50;;;10.20;99.90;;;;;;5130421;28;20036;-81
2023/03/30 01:44:36;;;;;;;15.77;10.52;;;10.10;99.90;;;;;;5146818;28;20036;-81
2023/03/30 01:47:31;;;;;;;15.88;9.90;;;10.20;99.90;;;;;;5147178;28;20053;-81
2023/03/30 01:50:07;;;;;;;15.02;9.57;;;10.20;99.90;;;;;;5101871;28;20479;-81
2023/03/30 01:52:41;;;;;;;17.23;9.82;;;10.10;99.90;;;;;;5147018;28;20143;-81
2023/03/30 01:55:16;;;;;;;13.52;8.50;;;10.10;99.90;;;;;;5130159;28;20036;-81
2023/03/30 01:58:02;;;;;;;18.02;9.52;;;10.10;99.90;;;;;;5146810;28;20038;-81
2023/03/30 02:00:29;;;;;;;16.38;9.25;;;10.10;99.90;;;;;;5129558;28;20032;-81
2023/03/30 02:03:04;;;;;;;12.70;9.02;;;10.10;99.90;;;;;;5096841;28;20043;-81
2023/03/30 02:05:32;;;;;;;13.27;7.97;;;10.10;99.90;;;;;;5130043;28;20032;-81
2023/03/30 02:08:07;;;;;;;14.35;8.77;;;10.00;99.90;;;;;;5112720;28;20074;-81
2023/03/30 02:10:36;;;;;;;12.65;7.55;;;10.00;99.90;;;;;;5129613;28;20035;-81
2023/03/30 02:13:05;;;;;;;13.18;8.00;;;10.10;99.90;;;;;;5130145;28;20062;-81
2023/03/30 02:15:40;;;;;;;12.77;7.20;;;10.00;99.90;;;;;;5129698;28;20438;-81
2023/03/30 02:18:07;;;;;;;13.77;6.85;;;10.10;99.90;;;;;;5120883;28;20066;-81
2023/03/30 02:20:35;;;;;;;11.02;6.40;;;10.10;99.90;;;;;;5092672;28;20713;-81
2023/03/30 02:23:04;;;;;;;14.55;6.80;;;10.10;99.90;;;;;;5109315;28;20040;-81
2023/03/30 02:25:32;;;;;;;13.32;6.60;;;10.10;99.90;;;;;;5093234;28;20036;-81
2023/03/30 02:27:59;;;;;;;15.77;6.63;;;10.10;99.90;;;;;;5092715;28;20044;-81
2023/03/30 02:30:36;;;;;;;9.98;6.45;;;10.10;99.90;;;;;;5109257;28;20036;-81
2023/03/30 02:33:03;;;;;;;10.80;5.90;;;10.10;99.90;;;;;;5109176;28;20131;-81
2023/03/30 02:35:46;;;;;;;12.32;5.93;;;10.10;99.90;;;;;;5092988;28;20043;-81
2023/03/30 02:38:37;;;;;;;9.77;5.40;;;10.20;99.90;;;;;;5109324;28;20051;-81
2023/03/30 02:41:37;;;;;;;11.45;5.40;;;10.20;99.90;;;;;;5109119;28;20447;-81
2023/03/30 02:44:20;;;;;;;11.57;5.18;;;10.30;99.90;;;;;;5126059;28;20446;-81
2023/03/30 02:47:15;;;;;;;10.00;5.03;;;10.30;99.90;;;;;;5112798;28;20040;-81
2023/03/30 02:49:59;;;;;;;12.27;4.72;;;10.40;99.90;;;;;;5121172;28;20047;-81
2023/03/30 02:52:54;;;;;;;10.98;4.85;;;10.40;99.90;;;;;;5150047;28;20043;-81
2023/03/30 02:55:34;;;;;;;12.93;5.53;;;10.50;99.90;;;;;;5131491;28;20082;-81
2023/03/30 02:58:35;;;;;;;9.07;4.45;;;10.50;99.90;;;;;;5133255;28;20074;-81
2023/03/30 03:01:18;;;;;;;9.02;4.90;;;10.50;99.90;;;;;;5133109;28;20065;-81
2023/03/30 03:03:47;;;;;;;8.15;4.63;;;10.50;99.90;;;;;;5133233;28;20039;-81
2023/03/30 03:06:15;;;;;;;10.38;4.55;;;10.50;99.90;;;;;;5133342;28;20089;-81
2023/03/30 03:08:46;;;;;;;10.60;4.47;;;10.50;99.90;;;;;;5116277;28;20044;-81
2023/03/30 03:11:13;;;;;;;8.93;4.82;;;10.60;99.90;;;;;;5133406;28;20135;-81
2023/03/30 03:13:40;;;;;;;10.07;4.63;;;10.60;99.90;;;;;;5132706;28;20256;-82
2023/03/30 03:16:09;;;;;;;9.88;4.15;;;10.60;99.90;;;;;;5133465;28;20039;-81
2023/03/30 03:18:40;;;;;;;6.82;4.00;;;10.60;99.90;;;;;;5099803;28;20704;-81
2023/03/30 03:21:08;;;;;;;9.50;4.13;;;10.60;99.90;;;;;;5128449;28;20154;-81
2023/03/30 03:23:35;;;;;;;13.65;4.68;;;10.60;99.90;;;;;;5127496;28;20043;-81
2023/03/30 03:26:03;;;;;;;9.95;4.55;;;10.70;99.90;;;;;;5116361;28;20088;-81
2023/03/30 03:28:30;;;;;;;7.53;4.03;;;10.70;99.90;;;;;;5149545;28;20039;-81
2023/03/30 03:30:58;;;;;;;8.15;4.05;;;10.60;99.90;;;;;;5099489;28;20143;-81
2023/03/30 03:33:26;;;;;;;8.70;4.07;;;10.60;99.90;;;;;;5115964;28;20044;-81
2023/03/30 03:35:53;;;;;;;6.97;4.13;;;10.50;99.90;;;;;;5099108;28;20126;-81
2023/03/30 03:38:21;;;;;;;11.23;4.30;;;10.60;99.90;;;;;;5132779;28;20071;-81
2023/03/30 03:40:52;;;;;;;9.27;3.70;;;10.50;99.90;;;;;;5132808;28;20035;-81
2023/03/30 03:43:20;;;;;;;9.68;3.92;;;10.50;99.90;;;;;;5132648;28;20483;-81
2023/03/30 03:45:48;;;;;;;10.65;3.90;;;10.60;99.90;;;;;;5131631;28;20074;-81
2023/03/30 03:48:17;;;;;;;7.72;3.70;;;10.60;99.90;;;;;;5132734;28;20090;-81
2023/03/30 03:50:44;;;;;;;8.05;3.72;;;10.60;99.90;;;;;;5132019;28;20381;-81
2023/03/30 03:53:12;;;;;;;9.95;3.58;;;10.60;99.90;;;;;;5115121;28;20040;-81
2023/03/30 03:55:38;;;;;;;9.85;4.25;;;10.60;99.90;;;;;;5128456;28;20043;-81
2023/03/30 03:58:06;;;;;;;9.68;3.85;;;10.60;99.90;;;;;;5111220;28;20477;-81
2023/03/30 04:00:33;;;;;;;10.02;3.90;;;10.70;99.90;;;;;;5095208;28;20040;-82
2023/03/30 04:03:00;;;;;;;10.48;3.50;;;10.70;99.90;;;;;;5111530;28;20043;-81
2023/03/30 04:05:27;;;;;;;8.77;4.03;;;10.70;99.90;;;;;;5143540;28;20415;-81
2023/03/30 04:07:55;;;;;;;8.60;3.55;;;10.70;99.90;;;;;;5098306;28;20043;-81
2023/03/30 04:10:23;;;;;;;9.32;3.80;;;10.80;99.90;;;;;;5132125;28;20047;-81
2023/03/30 04:12:49;;;;;;;7.65;3.47;;;10.70;99.90;;;;;;5114748;28;20393;-81
2023/03/30 04:15:16;;;;;;;9.07;3.47;;;10.80;99.90;;;;;;5122292;28;20036;-81
2023/03/30 04:17:43;;;;;;;6.55;3.97;;;10.90;99.90;;;;;;5094529;28;20119;-81
2023/03/30 04:20:10;;;;;;;10.52;4.20;;;10.90;99.90;;;;;;5111993;28;20036;-81
2023/03/30 04:22:41;;;;;;;8.52;3.65;;;10.90;99.90;;;;;;5094843;28;20093;-81
2023/03/30 04:25:10;;;;;;;9.57;3.90;;;11.40;99.90;;;;;;5111777;28;20040;-81
2023/03/30 04:27:37;;;;;;;8.43;3.42;;;10.90;99.90;;;;;;5116528;28;20036;-81
2023/03/30 04:30:04;;;;;;;7.13;3.10;;;10.90;99.90;;;;;;5097801;28;20066;-81
2023/03/30 04:32:33;;;;;;;9.82;3.20;;;10.90;99.90;;;;;;5131009;28;20120;-81
2023/03/30 04:35:00;;;;;;;7.00;3.15;;;10.90;99.90;;;;;;5131275;28;20067;-81
2023/03/30 04:37:30;;;;;;;7.65;3.30;;;10.90;99.90;;;;;;5131426;28;20039;-81
2023/03/30 04:40:00;;;;;;;6.95;3.08;;;10.90;99.90;;;;;;5098456;28;20073;-81
2023/03/30 04:42:33;;;;;;;6.93;3.03;;;10.80;99.90;;;;;;5131002;28;20032;-81
2023/03/30 04:45:00;;;;;;;8.15;2.75;;;10.80;99.90;;;;;;5114770;28;20515;-81
2023/03/30 04:47:28;;;;;;;10.98;3.33;;;10.80;99.90;;;;;;5094357;28;20043;-82
2023/03/30 04:49:54;;;;;;;6.95;3.20;;;10.70;99.90;;;;;;5146221;28;20039;-81
2023/03/30 04:52:21;;;;;;;7.20;3.22;;;10.70;99.90;;;;;;5130846;28;20042;-81
2023/03/30 04:54:48;;;;;;;6.53;3.00;;;10.70;99.90;;;;;;5130664;28;20040;-81
2023/03/30 04:57:15;;;;;;;6.88;3.00;;;10.60;99.90;;;;;;5110486;28;20078;-81
2023/03/30 04:59:43;;;;;;;12.05;2.90;;;10.60;99.90;;;;;;5094148;28;20034;-81
2023/03/30 05:02:11;;;;;;;8.30;2.67;;;10.70;99.90;;;;;;5127427;28;20072;-81
2023/03/30 05:04:38;;;;;;;13.27;2.78;;;10.70;99.90;;;;;;5110812;28;20047;-81
2023/03/30 05:07:06;;;;;;;7.65;2.72;;;10.70;99.90;;;;;;5098138;28;20039;-81
2023/03/30 05:09:33;;;;;;;8.73;2.88;;;10.70;99.90;;;;;;5147732;28;20036;-81
2023/03/30 05:12:00;;;;;;;5.68;2.55;;;10.80;99.90;;;;;;5113354;28;20441;-81
2023/03/30 05:14:26;;;;;;;7.75;2.85;;;10.80;99.90;;;;;;5113447;28;20043;-81
2023/03/30 05:16:53;;;;;;;7.45;2.67;;;10.90;99.90;;;;;;5113420;28;20032;-81
2023/03/30 05:19:20;;;;;;;6.07;2.33;;;11.00;99.90;;;;;;5113547;28;20047;-82
2023/03/30 05:21:47;;;;;;;5.25;2.08;;;11.00;99.90;;;;;;5130028;28;20028;-82
2023/03/30 05:24:14;;;;;;;7.28;2.50;;;11.00;99.90;;;;;;5096783;28;20044;-81
2023/03/30 05:26:41;;;;;;;8.88;2.58;;;11.10;99.90;;;;;;5130286;28;20036;-81
2023/03/30 05:29:08;;;;;;;8.25;2.50;;;11.10;99.90;;;;;;5109457;28;20063;-81
2023/03/30 05:31:35;;;;;;;8.15;2.33;;;11.10;99.90;;;;;;5126114;28;20131;-81
2023/03/30 05:34:02;;;;;;;10.10;2.40;;;11.10;99.90;;;;;;5109170;28;20127;-81
2023/03/30 05:36:29;;;;;;;9.27;2.47;;;11.10;99.90;;;;;;5093341;28;20040;-81
2023/03/30 05:38:56;;;;;;;8.15;2.92;;;11.20;99.90;;;;;;5092585;28;20039;-81
2023/03/30 05:41:22;;;;;;;6.72;2.60;;;11.20;99.90;;;;;;5076656;28;20040;-81
2023/03/30 05:43:49;;;;;;;6.07;2.58;;;11.30;99.90;;;;;;5092531;28;20044;-81
2023/03/30 05:46:16;;;;;;;9.30;2.80;;;11.30;99.90;;;;;;5076258;28;20050;-81
2023/03/30 05:48:43;;;;;;;6.40;2.70;;;11.40;99.90;;;;;;5076554;28;20131;-81
2023/03/30 05:51:09;;;;;;;8.25;2.70;;;11.40;99.90;;;;;;5109123;28;20047;-81
2023/03/30 05:53:36;;;;;;;7.60;2.90;;;11.40;99.90;;;;;;5092650;28;20127;-81
2023/03/30 05:56:03;;;;;;;8.10;2.90;;;11.40;99.90;;;;;;5092310;28;20043;-81
2023/03/30 05:58:30;;;;;;;8.07;2.72;;;11.40;99.90;;;;;;5092775;28;20044;-81
2023/03/30 06:00:58;;;;;;;9.88;3.30;;;11.40;99.90;;;;;;5077472;28;20040;-81
2023/03/30 06:03:24;;;;;;;7.72;2.88;;;11.40;99.90;;;;;;5126116;28;20503;-81
2023/03/30 06:05:52;;;;;;;7.78;2.95;;;11.30;99.90;;;;;;5092262;28;20036;-82
2023/03/30 06:08:19;;;;;;;9.13;3.33;;;11.30;99.90;;;;;;5092541;28;20097;-81
2023/03/30 06:10:53;;;;;;;8.63;3.35;;;11.30;99.90;;;;;;5109076;28;20036;-82
2023/03/30 06:13:20;;;;;;;12.25;3.05;;;11.30;99.90;;;;;;5109172;28;20040;-81
2023/03/30 06:15:47;;;;;;;11.80;3.40;;;11.30;99.90;;;;;;5108888;28;20104;-82
2023/03/30 06:18:14;;;;;;;8.25;3.80;;;11.20;99.90;;;;;;5108869;28;20047;-81
2023/03/30 06:20:41;;;;;;;13.50;3.60;;;11.20;99.90;;;;;;5112230;28;20032;-81
2023/03/30 06:23:08;;;;;;;7.97;3.60;;;11.20;99.90;;;;;;5112557;28;20043;-81
2023/03/30 06:25:35;;;;;;;7.22;3.05;;;11.30;99.90;;;;;;5112752;28;20043;-81
2023/03/30 06:28:02;;;;;;;10.30;3.58;;;11.30;99.90;;;;;;5095949;28;20086;-81
2023/03/30 06:30:29;;;;;;;8.27;3.03;;;11.30;99.90;;;;;;5112760;28;20039;-81
2023/03/30 06:32:56;;;;;;;10.00;3.38;;;11.30;99.90;;;;;;5091358;28;20067;-82
2023/03/30 06:35:22;;;;;;;6.97;3.22;;;11.30;99.90;;;;;;5097947;28;20488;-82
2023/03/30 06:37:49;;;;;;;10.93;3.17;;;11.30;99.90;;;;;;5108949;28;20404;-82
2023/03/30 06:40:16;;;;;;;10.65;3.08;;;11.30;99.90;;;;;;5108722;28;20047;-82
2023/03/30 06:42:43;;;;;;;11.48;2.97;;;11.40;99.90;;;;;;5103146;28;20066;-82
2023/03/30 06:45:10;;;;;;;10.57;3.10;;;11.40;99.90;;;;;;5095240;28;20488;-82
2023/03/30 06:47:38;;;;;;;9.95;3.55;;;11.50;99.90;;;;;;5129225;28;20067;-82
2023/03/30 06:50:05;;;;;;;7.68;2.72;;;11.50;99.90;;;;;;5112379;28;20043;-83
2023/03/30 06:52:36;;;;;;;7.80;2.90;;;11.50;99.90;;;;;;5108774;28;20118;-82
2023/03/30 06:55:04;;;;;;;8.25;2.70;;;11.50;99.90;;;;;;5108428;28;20055;-82
2023/03/30 06:57:31;;;;;;;8.90;3.03;;;11.60;99.90;;;;;;5108848;28;20036;-82
2023/03/30 06:59:57;;;;;;;11.93;3.20;;;11.60;99.90;;;;;;5095658;28;20043;-82
2023/03/30 07:02:25;;;;;;;7.32;2.80;;;11.60;99.90;;;;;;5095492;28;20046;-82
2023/03/30 07:04:51;;;;;;;8.70;3.00;;;11.60;99.90;;;;;;5112123;28;20035;-82
2023/03/30 07:07:18;;;;;;;6.97;2.58;;;11.60;99.90;;;;;;5127795;28;20118;-82
2023/03/30 07:09:45;;;;;;;8.07;2.70;;;11.70;99.90;;;;;;5091907;28;20131;-82
2023/03/30 07:12:12;;;;;;;8.27;2.75;;;11.70;99.90;;;;;;5108385;28;20040;-82
2023/03/30 07:14:38;;;;;;;8.20;2.75;;;11.80;99.90;;;;;;5101757;28;20040;-82
2023/03/30 07:17:06;;;;;;;9.82;3.08;;;11.80;99.90;;;;;;5091697;28;20093;-82
2023/03/30 07:19:33;;;;;;;9.77;3.40;;;11.80;99.90;;;;;;5109154;28;20036;-82
2023/03/30 07:21:59;;;;;;;6.20;2.63;;;11.90;99.90;;;;;;5108622;28;20088;-82
2023/03/30 07:24:26;;;;;;;9.32;2.80;;;12.00;99.90;;;;;;5089960;28;20124;-83
2023/03/30 07:26:53;;;;;;;6.28;2.40;;;12.10;99.90;;;;;;5108576;28;20047;-82
2023/03/30 07:29:20;;;;;;;9.15;2.47;;;12.20;99.90;;;;;;5125016;28;20040;-82
2023/03/30 07:31:46;;;;;;;12.07;2.70;;;12.30;99.90;;;;;;5108893;28;20039;-81
2023/03/30 07:34:15;;;;;;;8.65;2.42;;;12.50;99.90;;;;;;5098609;28;20071;-82
2023/03/30 07:36:42;;;;;;;9.27;2.58;;;12.60;99.90;;;;;;5112091;28;20434;-84
2023/03/30 07:39:09;;;;;;;11.52;2.85;;;12.60;99.90;;;;;;5094724;28;20036;-82
2023/03/30 07:41:36;;;;;;;7.25;2.53;;;12.60;99.90;;;;;;5095552;28;20035;-83
2023/03/30 07:44:03;;;;;;;9.48;3.20;;;12.50;99.90;;;;;;5126339;28;20050;-82
2023/03/30 07:46:30;;;;;;;6.25;2.60;;;12.50;99.90;;;;;;5094824;28;20127;-82
2023/03/30 07:48:56;;;;;;;8.30;2.67;;;12.50;99.90;;;;;;5097415;28;20085;-82
2023/03/30 07:51:23;;;;;;;8.50;3.05;;;12.40;99.90;;;;;;5132022;28;20048;-82
2023/03/30 07:53:50;;;;;;;7.95;2.47;;;12.30;99.90;;;;;;5115301;28;20096;-82
2023/03/30 07:56:17;;;;;;;8.00;2.42;;;12.30;99.90;;;;;;5098528;28;20039;-81
2023/03/30 07:58:43;;;;;;;11.65;2.42;;;12.20;99.90;;;;;;5098433;28;20047;-81
2023/03/30 08:01:10;;;;;;;11.43;3.00;;;12.20;99.90;;;;;;5098465;28;20028;-81
2023/03/30 08:03:37;;;;;;;10.23;2.78;;;12.10;99.90;;;;;;5098551;28;20093;-82
2023/03/30 08:06:05;;;;;;;8.43;2.55;;;12.10;99.90;;;;;;5115610;28;20135;-82
2023/03/30 08:08:33;;;;;;;18.42;3.15;;;12.10;99.90;;;;;;5098901;28;20055;-81
2023/03/30 08:11:00;;;;;;;9.98;2.58;;;12.00;99.90;;;;;;5132191;28;20032;-81
2023/03/30 08:13:26;;;;;;;13.02;2.58;;;12.00;99.90;;;;;;5131742;28;20180;-81
2023/03/30 08:15:53;;;;;;;13.90;3.10;;;12.00;99.90;;;;;;5089101;28;20047;-82
2023/03/30 08:18:20;;;;;;;13.52;2.72;;;12.00;99.90;;;;;;5111525;28;20035;-81
2023/03/30 08:20:51;;;;;;;16.30;2.75;;;12.00;99.90;;;;;;5094767;28;20047;-82
2023/03/30 08:23:18;;;;;;;14.68;2.67;;;12.00;99.90;;;;;;5128377;28;20043;-82
2023/03/30 08:25:50;;;;;;;15.07;2.80;;;11.90;99.90;;;;;;5111875;28;20035;-81
2023/03/30 08:28:17;;;;;;;14.80;2.45;;;11.90;99.90;;;;;;5095141;28;20133;-82
2023/03/30 08:30:44;;;;;;;10.57;2.42;;;11.80;99.90;;;;;;5094647;28;20040;-81
2023/03/30 08:33:12;;;;;;;14.38;2.95;;;11.80;99.90;;;;;;5094408;28;20039;-81
2023/03/30 08:35:39;;;;;;;13.43;2.40;;;11.80;99.90;;;;;;5094691;28;20040;-82
2023/03/30 08:38:06;;;;;;;12.15;2.55;;;11.80;99.90;;;;;;5109736;28;20040;-82
2023/03/30 08:40:32;;;;;;;13.23;2.25;;;11.80;99.90;;;;;;5128408;28;20046;-82
2023/03/30 08:43:30;;;;;;;7.72;2.30;;;11.80;99.90;;;;;;5097305;28;20043;-81
2023/03/30 08:46:01;;;;;;;12.30;2.92;;;11.70;99.90;;;;;;5147998;28;20484;-81
2023/03/30 08:48:32;;;;;;;14.85;3.38;;;11.70;99.90;;;;;;5110486;28;20040;-81
2023/03/30 08:51:04;;;;;;;17.30;3.33;;;11.60;99.90;;;;;;5111067;28;20047;-81
2023/03/30 08:53:33;;;;;;;14.38;2.70;;;11.50;99.90;;;;;;5110920;28;20447;-81
2023/03/30 08:56:19;;;;;;;17.27;2.72;;;11.40;99.90;;;;;;5110770;28;20443;-81
2023/03/30 08:59:27;;;;;;;24.13;3.88;;;11.40;99.90;;;;;;5126912;28;20055;-81
2023/03/30 09:01:56;;;;;;;14.55;3.10;;;11.40;99.90;;;;;;5131361;28;20484;-81
2023/03/30 09:05:04;;;;;;;17.25;3.08;;;11.40;99.90;;;;;;5131555;28;20043;-81
2023/03/30 09:07:50;;;;;;;17.10;2.60;;;11.40;99.90;;;;;;5072752;28;20091;-81
2023/03/30 09:10:18;;;;;;;;;;;11.40;99.90;;;;;;5089696;28;20098;-82
2023/03/30 09:12:53;;;;;;;15.73;2.95;;;11.30;99.90;;;;;;5108611;28;19924;-81
2023/03/30 09:15:44;;;;;;;15.88;2.80;;;11.30;99.90;;;;;;5131076;28;20082;-81
2023/03/30 09:18:31;;;;;;;14.38;2.90;;;11.30;99.90;;;;;;5128648;28;20039;-81
2023/03/30 09:21:00;;;;;;;19.48;2.95;;;11.40;99.90;;;;;;5110921;28;20035;-81
2023/03/30 09:23:29;;;;;;;14.68;2.72;;;11.40;99.90;;;;;;5110424;28;20131;-81
2023/03/30 09:26:42;;;;;;;13.50;2.67;;;11.50;99.90;;;;;;5110170;28;20044;-81
2023/03/30 09:29:30;;;;;;;17.40;3.22;;;11.70;99.90;;;;;;5124595;28;20048;-81
2023/03/30 09:32:23;;;;;;;16.00;3.30;;;11.80;99.90;;;;;;5130232;28;20043;-82
2023/03/30 09:35:03;;;;;;;16.77;2.88;;;11.90;99.90;;;;;;5127934;28;20047;-82
2023/03/30 09:37:30;;;;;;;20.42;2.92;;;11.90;99.90;;;;;;5142343;28;20071;-82
2023/03/30 09:39:57;;;;;;;17.45;2.50;;;12.10;99.90;;;;;;5093424;28;20075;-81
2023/03/30 09:42:46;;;;;;;18.13;2.70;;;12.10;99.90;;;;;;5093064;28;20071;-82
2023/03/30 09:45:13;;;;;;;11.57;2.65;;;12.20;99.90;;;;;;5127084;28;20047;-81
2023/03/30 09:47:41;;;;;;;12.30;2.50;;;12.20;99.90;;;;;;5126719;28;20557;-81
2023/03/30 09:50:16;;;;;;;16.85;3.10;;;12.30;99.90;;;;;;5126488;28;20084;-81
2023/03/30 09:53:01;;;;;;;15.18;2.72;;;12.30;99.90;;;;;;5109170;28;20549;-81
2023/03/30 09:55:29;;;;;;;13.00;2.72;;;12.40;99.90;;;;;;5108955;28;20071;-82
2023/03/30 09:58:13;;;;;;;14.98;2.80;;;12.50;99.90;;;;;;5125540;28;20488;-81
2023/03/30 10:00:40;;;;;;;13.73;2.60;;;12.70;99.90;;;;;;5114765;28;20089;-82
2023/03/30 10:03:17;;;;;;;11.35;1.95;;;12.80;99.90;;;;;;5092898;28;20039;-81
2023/03/30 10:05:43;;;;;;;14.57;2.65;;;12.70;99.90;;;;;;5109481;28;20493;-81
2023/03/30 10:08:21;;;;;;;13.00;2.17;;;12.80;99.90;;;;;;5078797;28;20131;-81
2023/03/30 10:10:59;;;;;;;10.80;2.28;;;12.70;99.90;;;;;;5098622;28;20039;-81
2023/03/30 10:13:32;;;;;;;16.00;2.10;;;12.90;99.90;;;;;;5109395;28;20408;-82
2023/03/30 10:16:10;;;;;;;13.40;1.77;;;12.80;99.90;;;;;;5093374;28;20048;-81
2023/03/30 10:18:43;;;;;;;14.32;2.75;;;12.90;99.90;;;;;;5109924;28;20039;-81
2023/03/30 10:21:13;;;;;;;12.70;2.15;;;12.90;99.90;;;;;;5109907;28;20036;-81
2023/03/30 10:23:43;;;;;;;9.07;1.85;;;12.90;99.90;;;;;;5126594;28;20047;-81
2023/03/30 10:26:18;;;;;;;13.82;2.10;;;12.90;99.90;;;;;;5109577;28;20542;-81
2023/03/30 10:29:03;;;;;;;14.93;2.90;;;12.80;99.90;;;;;;5109717;28;20043;-81
2023/03/30 10:31:36;;;;;;;12.73;2.55;;;12.60;99.90;;;;;;5109433;28;20076;-81
2023/03/30 10:34:12;;;;;;;11.65;2.08;;;12.50;99.90;;;;;;5108988;28;20389;-81
2023/03/30 10:36:40;;;;;;;10.93;2.15;;;12.50;99.90;;;;;;5109101;28;20119;-81
2023/03/30 10:39:21;;;;;;;15.57;2.47;;;12.50;99.90;;;;;;5109435;28;20040;-81
2023/03/30 10:41:49;;;;;;;11.65;2.45;;;12.60;99.90;;;;;;5109184;28;20036;-81
2023/03/30 10:44:30;;;;;;;8.48;1.77;;;12.60;99.90;;;;;;5126277;28;20496;-81
2023/03/30 10:47:08;;;;;;;9.07;2.13;;;12.60;99.90;;;;;;5109313;28;20109;-81
2023/03/30 10:49:53;;;;;;;10.30;1.90;;;12.70;99.90;;;;;;5109321;28;20050;-81
2023/03/30 10:52:56;;;;;;;9.25;2.00;;;12.60;99.90;;;;;;5109494;28;20127;-81
2023/03/30 10:55:50;;;;;;;10.32;2.13;;;12.60;99.90;;;;;;5109333;28;20040;-81
2023/03/30 10:58:29;;;;;;;12.40;2.28;;;12.60;99.90;;;;;;5109724;28;20086;-81
2023/03/30 11:00:59;;;;;;;13.88;2.40;;;12.60;99.90;;;;;;5119249;28;20044;-81
2023/03/30 11:03:31;;;;;;;12.95;2.08;;;12.60;99.90;;;;;;5129620;28;20468;-81
2023/03/30 11:06:08;;;;;;;7.07;1.42;;;12.70;99.90;;;;;;5130562;28;20100;-81
2023/03/30 11:08:39;;;;;;;10.65;2.28;;;12.70;99.90;;;;;;5132087;28;20239;-82
2023/03/30 11:11:13;;;;;;;12.00;2.40;;;12.70;99.90;;;;;;5135892;28;20403;-81
2023/03/30 11:13:44;;;;;;;10.20;1.92;;;12.80;99.90;;;;;;5114733;28;20062;-82
2023/03/30 11:16:26;;;;;;;15.02;2.00;;;12.80;99.90;;;;;;5149769;28;20088;-82
2023/03/30 11:18:58;;;;;;;15.18;2.10;;;12.70;99.90;;;;;;5133441;28;20484;-82
2023/03/30 11:21:28;;;;;;;9.63;2.22;;;12.80;99.90;;;;;;5133342;28;20039;-82
2023/03/30 11:23:58;;;;;;;11.45;2.13;;;12.80;99.90;;;;;;5112716;28;20054;-82
2023/03/30 11:26:48;;;;;;;10.60;2.47;;;12.80;99.90;;;;;;5111488;28;20047;-82
2023/03/30 11:29:37;;;;;;;13.75;2.42;;;12.70;99.90;;;;;;5133041;28;20043;-81
2023/03/30 11:32:15;;;;;;;14.15;2.28;;;12.70;99.90;;;;;;5132629;28;20128;-82
2023/03/30 11:34:42;;;;;;;14.60;2.42;;;12.70;99.90;;;;;;5132411;28;20039;-81
2023/03/30 11:37:33;;;;;;;16.42;2.38;;;12.90;99.90;;;;;;5114700;28;20031;-82
2023/03/30 11:40:15;;;;;;;13.55;2.20;;;12.90;99.90;;;;;;5112275;28;20071;-82
2023/03/30 11:42:42;;;;;;;10.77;1.90;;;12.90;99.90;;;;;;5112275;28;20043;-82
2023/03/30 11:45:48;;;;;;;16.55;2.70;;;13.00;99.90;;;;;;5095410;28;20076;-82
2023/03/30 11:48:41;;;;;;;13.67;2.30;;;13.00;99.90;;;;;;5110756;28;20105;-82
2023/03/30 11:51:21;;;;;;;12.30;2.47;;;13.00;99.90;;;;;;5096692;28;20051;-82
2023/03/30 11:54:15;;;;;;;10.90;1.90;;;13.00;99.90;;;;;;5111596;28;20125;-81
2023/03/30 11:57:06;;;;;;;16.55;2.63;;;13.10;99.90;;;;;;5114606;28;20032;-81
2023/03/30 11:59:55;;;;;;;13.77;2.67;;;13.30;99.90;;;;;;5132629;28;20126;-81
2023/03/30 12:02:41;;;;;;;17.50;2.72;;;13.50;99.90;;;;;;5132553;28;20043;-82
2023/03/30 12:05:22;;;;;;;13.30;2.50;;;13.70;99.90;;;;;;5132370;28;20043;-82
2023/03/30 12:07:57;;;;;;;12.75;2.83;;;13.80;99.90;;;;;;5123597;28;20453;-82
2023/03/30 12:10:32;;;;;;;;;;;13.80;99.90;;;;;;5129016;28;20764;-82
2023/03/30 12:13:00;;;;;;;13.95;2.47;;;13.90;99.90;;;;;;5111513;28;19967;-82
2023/03/30 12:15:47;;;;;;;15.35;2.42;;;14.10;99.90;;;;;;5114974;28;20040;-81
2023/03/30 12:18:28;;;;;;;12.07;2.08;;;14.10;99.90;;;;;;5147928;28;20042;-82
2023/03/30 12:21:01;;;;;;;12.65;3.33;;;14.00;99.90;;;;;;5148471;28;20096;-82
2023/03/30 12:24:00;;;;;;;12.27;2.42;;;14.10;99.90;;;;;;5149705;28;20073;-81
2023/03/30 12:26:36;;;;;;;12.15;2.38;;;14.30;99.90;;;;;;5079740;28;20057;-81
2023/03/30 12:29:03;;;;;;;11.30;2.22;;;14.70;99.90;;;;;;5121016;28;20381;-81
2023/03/30 12:32:02;;;;;;;14.45;2.65;;;14.80;99.90;;;;;;5111954;28;20101;-81
2023/03/30 12:34:36;;;;;;;9.55;2.20;;;14.80;99.90;;;;;;5111555;28;20040;-81
2023/03/30 12:37:08;;;;;;;17.75;2.78;;;14.80;99.90;;;;;;5094903;28;20090;-81
2023/03/30 12:39:47;;;;;;;14.45;2.67;;;14.70;99.90;;;;;;5121620;28;20118;-81
2023/03/30 12:42:25;;;;;;;12.57;2.00;;;14.70;99.90;;;;;;5132024;28;20046;-81
2023/03/30 12:45:01;;;;;;;15.40;2.30;;;14.80;99.90;;;;;;5131737;28;20075;-81
2023/03/30 12:47:47;;;;;;;13.27;2.83;;;14.70;99.90;;;;;;5132187;28;20133;-81
2023/03/30 12:50:23;;;;;;;17.05;2.97;;;14.60;99.90;;;;;;5148266;28;20047;-81
2023/03/30 12:53:19;;;;;;;;;;;14.70;99.90;;;;;;5132206;28;20055;-82
2023/03/30 12:56:12;;;;;;;12.07;2.17;;;14.70;99.90;;;;;;5114872;28;19920;-81
2023/03/30 12:58:39;;;;;;;16.20;2.33;;;14.90;99.90;;;;;;5125175;28;20652;-81
2023/03/30 13:01:44;;;;;;;12.30;2.78;;;15.10;99.90;;;;;;5131701;28;20126;-81
2023/03/30 13:04:17;;;;;;;11.48;2.80;;;15.30;99.90;;;;;;5109884;28;20517;-81
2023/03/30 13:06:47;;;;;;;14.32;2.50;;;15.20;99.90;;;;;;5132132;28;20047;-81
2023/03/30 13:09:35;;;;;;;13.18;2.15;;;15.20;99.90;;;;;;5131558;28;20126;-81
2023/03/30 13:12:26;;;;;;;13.05;2.55;;;15.00;99.90;;;;;;5115221;28;20039;-81